Time;durP1;ratioP1;P1;durP2;ratioP2;P2;SDS_P1;SDS_P2;PMS_P1;PMS_P2;Temp;Humidity;BMP_temperature;BMP_pressure;BME280_temperature;BME280_humidity;BME280_pressure;Samples;Min_cycle;Max_cycle;Signal;HPM_P1;HPM_P2
2022/10/14 00:00:39;;;;;;;4.43;2.88;;;;;;;19.60;54.18;101454.69;5061508;28;20036;-60
2022/10/14 00:03:04;;;;;;;5.18;2.90;;;;;;;19.58;54.02;101453.03;5061369;28;20170;-60
2022/10/14 00:05:29;;;;;;;5.47;3.00;;;;;;;19.54;53.90;101448.09;5061763;28;20111;-61
2022/10/14 00:07:55;;;;;;;5.55;3.10;;;;;;;19.56;54.07;101456.75;5060856;28;20847;-62
2022/10/14 00:10:20;;;;;;;5.97;3.00;;;;;;;19.50;53.87;101446.66;5061696;28;20025;-61
2022/10/14 00:12:46;;;;;;;5.00;2.92;;;;;;;19.48;53.95;101443.28;5060932;28;20464;-60
2022/10/14 00:15:12;;;;;;;4.75;2.90;;;;;;;19.54;53.99;101459.50;5061702;28;20029;-62
2022/10/14 00:17:37;;;;;;;4.78;2.65;;;;;;;19.50;54.01;101449.28;5060893;28;20467;-59
2022/10/14 00:20:03;;;;;;;4.47;2.58;;;;;;;19.53;53.90;101459.63;5061456;28;20143;-60
2022/10/14 00:22:28;;;;;;;5.38;3.05;;;;;;;19.46;54.22;101451.34;5061180;28;20070;-61
2022/10/14 00:24:53;;;;;;;4.43;2.90;;;;;;;19.49;54.05;101455.56;5061247;28;20093;-60
2022/10/14 00:27:19;;;;;;;5.32;2.90;;;;;;;19.32;54.13;101420.69;5060663;28;20257;-60
2022/10/14 00:29:44;;;;;;;5.53;3.00;;;;;;;19.49;54.13;101448.47;5061131;28;20120;-61
2022/10/14 00:32:09;;;;;;;5.03;2.83;;;;;;;19.44;54.23;101437.41;5060777;28;20031;-60
2022/10/14 00:34:35;;;;;;;4.85;2.95;;;;;;;19.50;54.24;101447.50;5061291;28;20035;-61
2022/10/14 00:37:00;;;;;;;7.22;3.10;;;;;;;19.50;53.94;101450.16;5061022;28;20047;-60
2022/10/14 00:39:26;;;;;;;5.38;3.10;;;;;;;19.44;54.15;101432.13;5061168;28;20081;-62
2022/10/14 00:41:51;;;;;;;4.88;3.08;;;;;;;19.47;53.96;101431.88;5060912;28;20080;-60
2022/10/14 00:44:16;;;;;;;4.55;2.72;;;;;;;19.48;53.95;101436.19;5067394;28;20032;-60
2022/10/14 00:46:44;;;;;;;4.88;3.15;;;;;;;19.47;54.14;101425.72;5067452;28;20028;-61
2022/10/14 00:49:17;;;;;;;5.43;3.05;;;;;;;19.45;54.07;101425.84;5067479;28;20067;-61
2022/10/14 00:51:47;;;;;;;4.72;2.95;;;;;;;19.48;54.04;101430.06;5067764;28;20678;-62
2022/10/14 00:54:15;;;;;;;5.55;3.20;;;;;;;19.47;54.38;101423.09;5067710;28;20109;-61
2022/10/14 00:56:43;;;;;;;4.97;2.97;;;;;;;19.43;53.92;101414.56;5067343;28;20067;-60
2022/10/14 00:59:09;;;;;;;5.38;2.85;;;;;;;19.36;54.37;101400.16;5067454;28;20040;-61
2022/10/14 01:01:34;;;;;;;4.80;3.03;;;;;;;19.40;54.19;101412.16;5067818;28;20028;-61
2022/10/14 01:03:59;;;;;;;5.88;3.10;;;;;;;19.45;53.91;101417.09;5067469;28;20040;-61
2022/10/14 01:06:46;;;;;;;5.13;3.08;;;;;;;19.45;53.91;101409.16;5067737;28;20413;-61
2022/10/14 01:09:27;;;;;;;5.35;3.38;;;;;;;19.44;54.05;101418.03;5067246;28;20036;-61
2022/10/14 01:12:12;;;;;;;5.10;2.92;;;;;;;19.43;54.10;101411.09;5067806;28;20025;-60
2022/10/14 01:14:58;;;;;;;6.57;2.90;;;;;;;19.43;54.20;101411.91;5067021;28;20029;-61
2022/10/14 01:17:43;;;;;;;4.60;2.80;;;;;;;19.36;54.10;101397.50;5067095;28;20441;-61
2022/10/14 01:20:30;;;;;;;4.97;2.78;;;;;;;19.32;54.14;101386.31;5067660;28;20085;-61
2022/10/14 01:23:05;;;;;;;4.97;3.13;;;;;;;19.34;54.03;101389.72;5066807;28;21010;-60
2022/10/14 01:25:48;;;;;;;4.50;2.88;;;;;;;19.40;54.20;101393.66;5067524;28;20116;-59
2022/10/14 01:28:35;;;;;;;4.53;2.80;;;;;;;19.33;54.20;101369.50;5066658;28;20452;-60
2022/10/14 01:31:05;;;;;;;4.80;3.15;;;;;;;19.34;53.98;101358.00;5067131;28;20314;-63
2022/10/14 01:33:36;;;;;;;5.95;3.10;;;;;;;19.32;54.15;101365.19;5065774;28;20032;-60
2022/10/14 01:36:13;;;;;;;5.28;2.85;;;;;;;19.31;54.18;101357.38;5067105;28;20033;-62
2022/10/14 01:38:45;;;;;;;5.80;3.22;;;;;;;19.32;54.11;101351.13;5066709;28;20040;-60
2022/10/14 01:41:31;;;;;;;4.90;3.08;;;;;;;19.37;54.14;101354.25;5067064;28;20040;-61
2022/10/14 01:44:01;;;;;;;4.72;3.13;;;;;;;19.29;54.05;101344.28;5067170;28;20032;-62
2022/10/14 01:46:27;;;;;;;4.55;3.08;;;;;;;19.30;54.08;101345.97;5067267;28;20113;-60
2022/10/14 01:49:01;;;;;;;6.43;3.20;;;;;;;19.30;54.13;101345.97;5066890;28;20115;-63
2022/10/14 01:51:37;;;;;;;5.13;3.17;;;;;;;19.29;54.06;101336.34;5067321;28;20376;-61
2022/10/14 01:54:08;;;;;;;4.72;2.90;;;;;;;19.35;53.92;101346.44;5065410;28;20119;-61
2022/10/14 01:56:34;;;;;;;5.22;3.25;;;;;;;19.33;54.16;101347.53;5063860;28;20031;-61
2022/10/14 01:59:01;;;;;;;5.03;3.05;;;;;;;19.28;53.99;101339.97;5063510;28;20468;-60
2022/10/14 02:01:27;;;;;;;5.53;3.25;;;;;;;19.33;53.91;101353.66;5063609;28;20036;-61
2022/10/14 02:03:52;;;;;;;5.40;3.10;;;;;;;19.33;54.21;101348.38;5064049;28;20024;-60
2022/10/14 02:06:36;;;;;;;5.82;3.55;;;;;;;19.33;54.01;101347.53;5063806;28;20044;-61
2022/10/14 02:09:24;;;;;;;6.47;3.55;;;;;;;19.31;54.13;101342.38;5063470;28;20094;-63
2022/10/14 02:12:12;;;;;;;5.13;3.22;;;;;;;19.33;54.11;101343.09;5063504;28;20075;-61
2022/10/14 02:14:49;;;;;;;5.18;3.00;;;;;;;19.28;54.07;101333.81;5059476;28;20040;-61
2022/10/14 02:17:26;;;;;;;6.25;3.47;;;;;;;19.33;54.00;101329.88;5063602;28;20071;-59
2022/10/14 02:20:15;;;;;;;5.15;3.25;;;;;;;19.28;54.22;101326.75;5063441;28;20158;-63
2022/10/14 02:22:45;;;;;;;5.43;3.30;;;;;;;19.31;54.27;101328.31;5063717;28;20043;-61
2022/10/14 02:25:20;;;;;;;4.85;3.35;;;;;;;19.32;54.19;101343.19;5063408;28;20488;-60
2022/10/14 02:27:48;;;;;;;6.00;3.97;;;;;;;19.30;54.01;101332.75;5062994;28;20083;-60
2022/10/14 02:30:14;;;;;;;5.43;2.97;;;;;;;19.30;54.14;101332.75;5063571;28;20071;-63
2022/10/14 02:32:41;;;;;;;4.82;3.13;;;;;;;19.27;54.23;101319.78;5063124;28;20032;-59
2022/10/14 02:35:11;;;;;;;5.00;3.20;;;;;;;19.30;54.15;101326.63;5063403;28;21254;-60
2022/10/14 02:37:38;;;;;;;5.35;3.38;;;;;;;19.28;54.29;101325.91;5063185;28;20041;-61
2022/10/14 02:40:12;;;;;;;5.82;3.10;;;;;;;19.28;54.06;101329.41;5062959;28;20840;-61
2022/10/14 02:42:38;;;;;;;5.15;3.42;;;;;;;19.28;54.09;101334.69;5062874;28;20076;-60
2022/10/14 02:45:05;;;;;;;5.82;3.60;;;;;;;19.23;54.26;101323.63;5062798;28;20063;-60
2022/10/14 02:47:30;;;;;;;5.20;2.97;;;;;;;19.21;54.29;101313.16;5062634;28;20102;-60
2022/10/14 02:49:55;;;;;;;5.15;3.10;;;;;;;19.20;54.25;101311.50;5062692;28;20040;-60
2022/10/14 02:52:21;;;;;;;5.35;3.40;;;;;;;19.27;54.25;101319.78;5062938;28;20457;-60
2022/10/14 02:54:46;;;;;;;6.67;3.10;;;;;;;19.28;54.30;101317.97;5062880;28;20047;-60
2022/10/14 02:57:11;;;;;;;5.87;3.27;;;;;;;19.26;54.03;101309.34;5062608;28;20265;-59
2022/10/14 02:59:38;;;;;;;5.75;3.20;;;;;;;19.19;54.27;101295.78;5062435;28;20258;-62
2022/10/14 03:02:04;;;;;;;4.90;3.15;;;;;;;19.26;54.19;101306.69;5062284;28;20079;-61
2022/10/14 03:04:29;;;;;;;5.70;3.17;;;;;;;19.26;54.06;101304.03;5062940;28;20052;-62
2022/10/14 03:06:54;;;;;;;6.43;3.10;;;;;;;19.25;54.11;101297.94;5062202;28;20032;-60
2022/10/14 03:09:19;;;;;;;6.03;3.20;;;;;;;19.19;54.25;101293.13;5062001;28;20892;-60
2022/10/14 03:11:45;;;;;;;6.17;3.40;;;;;;;19.24;54.11;101298.06;5062226;28;20154;-61
2022/10/14 03:14:10;;;;;;;6.30;3.10;;;;;;;19.18;54.17;101283.50;5062559;28;20265;-60
2022/10/14 03:16:35;;;;;;;4.78;3.08;;;;;;;19.18;54.18;101286.16;5061951;28;20606;-61
2022/10/14 03:19:00;;;;;;;5.93;3.13;;;;;;;19.18;54.15;101278.22;5062259;28;20029;-60
2022/10/14 03:21:25;;;;;;;6.70;3.37;;;;;;;19.24;54.12;101295.41;5062147;28;20340;-62
2022/10/14 03:23:51;;;;;;;6.23;3.60;;;;;;;19.19;54.39;101282.56;5062424;28;20605;-60
2022/10/14 03:26:16;;;;;;;6.97;3.30;;;;;;;19.17;54.39;101271.28;5062062;28;20253;-60
2022/10/14 03:28:42;;;;;;;6.85;2.80;;;;;;;19.22;54.02;101282.31;5062149;28;20024;-61
2022/10/14 03:31:07;;;;;;;5.43;2.95;;;;;;;19.18;54.31;101273.81;5061945;28;20060;-61
2022/10/14 03:33:32;;;;;;;5.40;2.97;;;;;;;19.16;54.36;101266.94;5062076;28;20031;-61
2022/10/14 03:35:57;;;;;;;6.90;2.93;;;;;;;19.23;54.37;101276.06;5061862;28;20269;-59
2022/10/14 03:38:23;;;;;;;5.47;2.70;;;;;;;19.17;54.38;101260.72;5062139;28;20790;-60
2022/10/14 03:40:48;;;;;;;7.28;3.10;;;;;;;19.23;54.33;101270.75;5061527;28;20045;-63
2022/10/14 03:43:13;;;;;;;4.57;2.97;;;;;;;19.21;54.19;101275.34;5062048;28;20123;-61
2022/10/14 03:45:39;;;;;;;6.60;3.13;;;;;;;19.16;54.11;101261.66;5061598;28;20025;-59
2022/10/14 03:48:04;;;;;;;6.20;2.90;;;;;;;19.17;54.28;101258.91;5061450;28;20038;-60
2022/10/14 03:50:30;;;;;;;5.65;3.00;;;;;;;19.22;54.53;101263.81;5061469;28;20024;-62
2022/10/14 03:52:55;;;;;;;5.25;2.72;;;;;;;19.21;54.35;101254.19;5061902;28;20024;-62
2022/10/14 03:55:21;;;;;;;5.03;2.85;;;;;;;19.20;54.20;101266.59;5061030;28;20456;-61
2022/10/14 03:57:46;;;;;;;4.80;2.60;;;;;;;19.14;54.39;101247.75;5061835;28;20039;-60
2022/10/14 04:00:12;;;;;;;6.27;2.90;;;;;;;19.15;54.26;101252.91;5061470;28;20020;-63
2022/10/14 04:02:37;;;;;;;5.00;2.83;;;;;;;19.21;54.22;101260.31;5061173;28;20658;-60
2022/10/14 04:05:03;;;;;;;5.38;2.75;;;;;;;19.21;54.40;101257.69;5061179;28;20376;-62
2022/10/14 04:07:28;;;;;;;5.40;3.00;;;;;;;19.20;54.21;101253.38;5061197;28;20651;-62
2022/10/14 04:09:53;;;;;;;5.60;2.90;;;;;;;19.14;54.48;101239.81;5061150;28;20036;-61
2022/10/14 04:12:18;;;;;;;5.60;2.95;;;;;;;19.19;54.14;101251.69;5061518;28;20040;-61
2022/10/14 04:14:44;;;;;;;6.57;3.08;;;;;;;19.17;54.39;101243.03;5061291;28;20542;-61
2022/10/14 04:17:09;;;;;;;5.27;2.90;;;;;;;19.13;54.35;101235.47;5060801;28;20074;-61
2022/10/14 04:19:34;;;;;;;5.65;2.80;;;;;;;19.18;54.31;101247.38;5060814;28;20261;-61
2022/10/14 04:21:59;;;;;;;5.57;2.53;;;;;;;19.13;54.45;101238.13;5061390;28;20053;-61
2022/10/14 04:24:25;;;;;;;5.90;2.60;;;;;;;19.13;54.39;101236.31;5061209;28;20036;-60
2022/10/14 04:26:51;;;;;;;6.00;2.70;;;;;;;19.07;54.11;101226.22;5061314;28;20269;-60
2022/10/14 04:29:16;;;;;;;5.35;2.60;;;;;;;19.19;54.54;101235.00;5060686;28;20173;-60
2022/10/14 04:31:42;;;;;;;4.97;2.58;;;;;;;19.18;54.44;101233.31;5060993;28;20028;-60
2022/10/14 04:34:08;;;;;;;4.70;2.63;;;;;;;19.19;54.33;101235.81;5061263;28;20036;-62
2022/10/14 04:36:34;;;;;;;5.80;2.72;;;;;;;19.17;54.51;101226.38;5061113;28;20276;-60
2022/10/14 04:38:59;;;;;;;5.07;2.23;;;;;;;19.11;54.34;101219.75;5060671;28;20021;-60
2022/10/14 04:41:24;;;;;;;4.53;2.43;;;;;;;19.10;54.50;101214.59;5060834;28;20376;-61
2022/10/14 04:43:49;;;;;;;4.57;2.60;;;;;;;19.13;54.38;101220.47;5061191;28;20253;-62
2022/10/14 04:46:15;;;;;;;4.90;2.90;;;;;;;19.11;54.57;101217.13;5060943;28;20695;-60
2022/10/14 04:48:40;;;;;;;5.30;2.20;;;;;;;19.12;54.40;101215.28;5060496;28;20288;-62
2022/10/14 04:51:05;;;;;;;4.90;2.13;;;;;;;19.11;54.58;101211.81;5061035;28;20363;-60
2022/10/14 04:53:30;;;;;;;4.37;2.30;;;;;;;19.11;54.41;101211.00;5060885;28;20307;-60
2022/10/14 04:55:55;;;;;;;4.60;2.30;;;;;;;19.12;54.48;101202.09;5060916;28;20795;-63
2022/10/14 04:58:21;;;;;;;4.57;2.20;;;;;;;19.16;54.40;101211.47;5060940;28;20024;-61
2022/10/14 05:00:46;;;;;;;3.90;2.23;;;;;;;19.09;54.21;101195.28;5060532;28;20352;-62
2022/10/14 05:03:11;;;;;;;4.50;2.20;;;;;;;19.13;54.29;101211.72;5060861;28;20287;-60
2022/10/14 05:05:37;;;;;;;4.47;2.35;;;;;;;19.16;54.54;101211.47;5060524;28;20289;-60
2022/10/14 05:08:02;;;;;;;4.50;2.15;;;;;;;19.08;54.17;101203.31;5060575;28;20047;-61
2022/10/14 05:10:27;;;;;;;4.95;2.25;;;;;;;19.11;54.56;101195.16;5060567;28;20048;-60
2022/10/14 05:12:53;;;;;;;4.13;2.13;;;;;;;19.10;54.48;101191.66;5060912;28;20992;-61
2022/10/14 05:15:18;;;;;;;4.93;2.35;;;;;;;19.09;54.42;101189.13;5060613;28;20078;-61
2022/10/14 05:17:43;;;;;;;4.60;2.10;;;;;;;19.15;54.50;101197.44;5060918;28;20067;-59
2022/10/14 05:20:10;;;;;;;5.27;2.30;;;;;;;19.15;54.34;101194.78;5060113;28;20078;-61
2022/10/14 05:22:36;;;;;;;4.35;2.17;;;;;;;19.14;54.52;101190.44;5060654;28;20266;-61
2022/10/14 05:25:01;;;;;;;3.97;1.98;;;;;;;19.12;54.50;101181.81;5060744;28;20094;-62
2022/10/14 05:27:27;;;;;;;5.97;1.95;;;;;;;19.14;54.39;101186.97;5060762;28;20033;-61
2022/10/14 05:29:52;;;;;;;4.72;2.08;;;;;;;19.13;54.57;101178.19;5063324;28;20033;-63
2022/10/14 05:32:17;;;;;;;4.45;2.00;;;;;;;19.07;54.51;101162.81;5064239;28;20036;-61
2022/10/14 05:34:43;;;;;;;4.50;1.90;;;;;;;18.91;54.52;101133.34;5064258;28;20193;-62
2022/10/14 05:37:08;;;;;;;4.07;1.80;;;;;;;19.08;54.29;101153.94;5064376;28;20028;-61
2022/10/14 05:39:33;;;;;;;3.30;1.77;;;;;;;19.08;54.09;101159.22;5064160;28;20258;-61
2022/10/14 05:41:59;;;;;;;4.05;1.85;;;;;;;19.15;53.92;101173.66;5063861;28;20289;-61
2022/10/14 05:44:24;;;;;;;3.38;1.75;;;;;;;19.18;53.66;101164.63;5064380;28;20020;-62
2022/10/14 05:46:49;;;;;;;4.40;1.90;;;;;;;19.10;53.91;101146.72;5063483;28;20052;-62
2022/10/14 05:49:14;;;;;;;3.90;1.83;;;;;;;19.20;54.13;101160.91;5063894;28;20028;-61
2022/10/14 05:51:40;;;;;;;4.07;1.65;;;;;;;19.22;53.97;101160.78;5063836;28;20055;-64
2022/10/14 05:54:05;;;;;;;3.50;1.70;;;;;;;19.24;53.83;101152.72;5064307;28;20059;-62
2022/10/14 05:56:31;;;;;;;4.20;1.60;;;;;;;19.24;53.67;101153.56;5063651;28;20050;-60
2022/10/14 05:58:56;;;;;;;2.55;1.38;;;;;;;19.21;53.83;101137.94;5063957;28;20020;-62
2022/10/14 06:01:22;;;;;;;4.13;1.65;;;;;;;19.26;53.71;101151.63;5063592;28;20032;-62
2022/10/14 06:03:51;;;;;;;4.93;2.20;;;;;;;19.22;53.79;101139.63;5063956;28;20525;-61
2022/10/14 06:06:16;;;;;;;3.38;1.70;;;;;;;19.31;53.97;101154.75;5063592;28;20047;-61
2022/10/14 06:08:43;;;;;;;2.97;1.38;;;;;;;19.32;53.51;101151.13;5063356;28;20024;-61
2022/10/14 06:11:08;;;;;;;2.92;1.50;;;;;;;19.28;53.71;101138.28;5063790;28;20031;-60
2022/10/14 06:13:34;;;;;;;4.30;1.60;;;;;;;19.33;54.00;101133.47;5063645;28;20020;-60
2022/10/14 06:16:04;;;;;;;5.43;1.80;;;;;;;19.37;54.06;101137.53;5063663;28;20906;-65
2022/10/14 06:18:29;;;;;;;3.55;1.60;;;;;;;19.31;53.86;101119.53;5063307;28;20044;-61
2022/10/14 06:20:55;;;;;;;4.30;1.63;;;;;;;19.33;53.92;101118.47;5063462;28;20444;-60
2022/10/14 06:23:20;;;;;;;2.97;1.60;;;;;;;19.34;53.98;101120.16;5063575;28;20029;-59
2022/10/14 06:25:45;;;;;;;3.92;1.60;;;;;;;19.34;53.97;101117.50;5063331;28;20059;-60
2022/10/14 06:28:10;;;;;;;2.83;1.40;;;;;;;19.43;54.07;101139.69;5063306;28;20041;-60
2022/10/14 06:30:36;;;;;;;3.83;1.80;;;;;;;19.44;54.16;101137.88;5063228;28;20068;-60
2022/10/14 06:33:01;;;;;;;3.70;1.60;;;;;;;19.42;54.60;101135.34;5063185;28;20028;-59
2022/10/14 06:35:26;;;;;;;4.50;1.60;;;;;;;19.46;54.66;101138.59;5062804;28;20598;-60
2022/10/14 06:37:52;;;;;;;3.72;1.55;;;;;;;19.46;54.49;101133.31;5063524;28;20037;-59
2022/10/14 06:40:17;;;;;;;4.40;1.60;;;;;;;19.40;54.44;101119.63;5062652;28;20028;-61
2022/10/14 06:42:42;;;;;;;4.68;1.70;;;;;;;19.48;54.66;101132.19;5062041;28;20285;-59
2022/10/14 06:45:08;;;;;;;4.85;1.70;;;;;;;19.49;54.64;101131.25;5063011;28;20040;-58
2022/10/14 06:47:33;;;;;;;4.28;1.52;;;;;;;19.46;54.83;101123.56;5062886;28;20119;-59
2022/10/14 06:49:59;;;;;;;4.35;1.50;;;;;;;19.42;54.72;101114.19;5062502;28;20032;-60
2022/10/14 06:52:24;;;;;;;5.80;1.47;;;;;;;19.46;54.67;101114.81;5063070;28;20024;-60
2022/10/14 06:54:49;;;;;;;4.93;1.50;;;;;;;19.52;54.72;101125.72;5062940;28;20617;-60
2022/10/14 06:57:15;;;;;;;3.67;1.30;;;;;;;19.45;54.59;101111.31;5062997;28;20052;-62
2022/10/14 06:59:41;;;;;;;4.25;1.60;;;;;;;19.56;54.81;101126.28;5062195;28;20338;-60
2022/10/14 07:02:06;;;;;;;4.97;1.50;;;;;;;19.49;54.89;101109.28;5061990;28;20043;-62
2022/10/14 07:04:31;;;;;;;3.53;1.38;;;;;;;19.51;54.96;101107.31;5061719;28;20023;-60
2022/10/14 07:06:57;;;;;;;5.15;1.50;;;;;;;19.56;54.63;101111.25;5062434;28;20039;-60
2022/10/14 07:09:23;;;;;;;3.30;1.30;;;;;;;19.55;54.39;101108.72;5062489;28;20161;-60
2022/10/14 07:11:48;;;;;;;4.25;1.42;;;;;;;19.45;54.42;101086.69;5062666;28;20142;-61
2022/10/14 07:14:13;;;;;;;3.97;1.42;;;;;;;19.56;54.70;101105.13;5063006;28;20471;-60
2022/10/14 07:16:42;;;;;;;3.93;1.43;;;;;;;19.55;54.74;101106.94;5062111;28;20035;-60
2022/10/14 07:19:07;;;;;;;2.53;1.25;;;;;;;19.49;54.48;101101.34;5061836;28;20772;-61
2022/10/14 07:21:32;;;;;;;3.13;1.48;;;;;;;19.54;54.88;101112.38;5063465;28;20089;-60
2022/10/14 07:23:57;;;;;;;4.28;1.50;;;;;;;19.56;54.69;101121.00;5062679;28;20028;-60
2022/10/14 07:26:23;;;;;;;3.00;1.45;;;;;;;19.51;54.76;101115.25;5062416;28;20028;-62
2022/10/14 07:28:48;;;;;;;7.57;1.70;;;;;;;19.50;54.83;101111.78;5062038;28;20028;-60
2022/10/14 07:31:13;;;;;;;2.50;1.23;;;;;;;19.56;54.73;101123.63;5062173;28;20348;-60
2022/10/14 07:33:39;;;;;;;3.92;1.30;;;;;;;19.50;54.63;101117.06;5061947;28;20749;-60
2022/10/14 07:36:08;;;;;;;3.47;1.60;;;;;;;19.53;54.69;101123.91;5062203;28;20428;-61
2022/10/14 07:38:34;;;;;;;3.78;1.45;;;;;;;19.57;54.69;101125.31;5062098;28;20068;-59
2022/10/14 07:41:15;;;;;;;2.80;1.20;;;;;;;19.50;54.66;101111.78;5061657;28;20131;-62
2022/10/14 07:43:44;;;;;;;3.13;1.40;;;;;;;19.56;54.50;101118.34;5062026;28;20060;-62
2022/10/14 07:46:11;;;;;;;4.55;1.40;;;;;;;19.55;54.58;101114.88;5061750;28;20483;-61
2022/10/14 07:48:37;;;;;;;2.67;1.40;;;;;;;19.52;54.55;101109.03;5061620;28;20032;-61
2022/10/14 07:51:03;;;;;;;4.30;1.48;;;;;;;19.52;54.65;101116.94;5062016;28;20080;-61
2022/10/14 07:53:29;;;;;;;3.33;1.30;;;;;;;19.57;54.70;101118.22;5060950;28;20090;-60
2022/10/14 07:55:57;;;;;;;4.85;1.40;;;;;;;19.58;54.22;101117.28;5061903;28;20062;-61
2022/10/14 07:58:25;;;;;;;2.72;1.30;;;;;;;19.60;54.66;101116.28;5061582;28;20112;-60
2022/10/14 08:00:51;;;;;;;3.63;1.50;;;;;;;19.53;54.41;101094.81;5061519;28;20181;-63
2022/10/14 08:03:18;;;;;;;4.47;1.30;;;;;;;19.59;54.63;101104.88;5061191;28;20114;-60
2022/10/14 08:05:45;;;;;;;4.55;1.40;;;;;;;19.57;54.52;101102.38;5061685;28;20059;-61
2022/10/14 08:08:10;;;;;;;2.60;1.30;;;;;;;19.58;54.47;101104.06;5061654;28;20570;-62
2022/10/14 08:10:37;;;;;;;3.75;1.50;;;;;;;19.60;54.46;101100.41;5061829;28;20794;-61
2022/10/14 08:13:02;;;;;;;2.63;1.20;;;;;;;19.58;54.47;101106.69;5061259;28;20044;-61
2022/10/14 08:15:31;;;;;;;3.60;1.40;;;;;;;19.58;54.75;101109.34;5061583;28;20105;-62
2022/10/14 08:17:56;;;;;;;3.15;1.40;;;;;;;19.58;54.29;101103.19;5061518;28;20900;-61
2022/10/14 08:20:22;;;;;;;2.83;1.35;;;;;;;19.59;54.29;101096.94;5061385;28;20165;-61
2022/10/14 08:22:47;;;;;;;4.10;1.67;;;;;;;19.61;54.34;101091.53;5061826;28;20028;-60
2022/10/14 08:25:12;;;;;;;3.07;1.53;;;;;;;19.54;54.39;101078.81;5060992;28;20109;-60
2022/10/14 08:27:37;;;;;;;3.78;1.30;;;;;;;19.61;54.52;101087.06;5061334;28;20311;-61
2022/10/14 08:30:04;;;;;;;2.75;1.30;;;;;;;19.60;54.55;101087.19;5061033;28;20109;-60
2022/10/14 08:32:29;;;;;;;3.53;1.60;;;;;;;19.62;54.54;101095.88;5061518;28;20020;-61
2022/10/14 08:34:54;;;;;;;3.30;1.50;;;;;;;19.62;54.32;101095.88;5061203;28;20503;-61
2022/10/14 08:37:21;;;;;;;3.30;1.30;;;;;;;19.56;54.57;101090.09;5061102;28;20474;-61
2022/10/14 08:39:46;;;;;;;3.38;1.30;;;;;;;19.59;54.77;101089.03;5061093;28;20028;-64
2022/10/14 08:42:30;;;;;;;2.97;1.30;;;;;;;19.63;54.59;101105.47;5061217;28;20068;-61
2022/10/14 08:45:07;;;;;;;3.17;1.48;;;;;;;19.54;54.76;101080.66;5060803;28;20028;-61
2022/10/14 08:47:43;;;;;;;3.00;1.27;;;;;;;19.54;54.53;101080.66;5061328;28;20048;-61
2022/10/14 08:50:43;;;;;;;2.80;1.45;;;;;;;19.61;54.46;101092.38;5061257;28;20063;-61
2022/10/14 08:53:16;;;;;;;2.47;1.20;;;;;;;19.60;54.70;101088.06;5053315;28;20131;-60
2022/10/14 08:55:51;;;;;;;2.15;1.10;;;;;;;19.55;54.67;101075.22;5059767;28;20412;-60
2022/10/14 08:58:32;;;;;;;3.58;1.42;;;;;;;19.63;54.67;101094.88;5060856;28;20072;-62
2022/10/14 09:01:02;;;;;;;3.38;1.48;;;;;;;19.60;54.61;101084.56;5061005;28;20033;-60
2022/10/14 09:03:32;;;;;;;3.72;1.33;;;;;;;19.52;54.65;101070.19;5061164;28;20487;-61
2022/10/14 09:06:32;;;;;;;3.20;1.40;;;;;;;19.63;54.60;101089.59;5064970;28;20032;-60
2022/10/14 09:09:05;;;;;;;2.25;1.20;;;;;;;19.63;54.67;101081.66;5052399;28;20123;-61
2022/10/14 09:11:37;;;;;;;2.90;1.40;;;;;;;19.57;54.63;101075.09;5065209;28;20116;-62
2022/10/14 09:14:07;;;;;;;2.85;1.40;;;;;;;19.62;54.48;101078.19;5064850;28;20054;-63
2022/10/14 09:16:37;;;;;;;2.40;1.10;;;;;;;19.57;54.67;101075.09;5065193;28;20137;-60
2022/10/14 09:19:17;;;;;;;3.50;1.50;;;;;;;19.63;54.59;101084.31;5064753;28;20040;-60
2022/10/14 09:21:47;;;;;;;3.00;1.50;;;;;;;19.63;54.48;101071.94;5064726;28;20028;-61
2022/10/14 09:24:15;;;;;;;3.10;1.60;;;;;;;19.61;54.64;101067.75;5065007;28;20068;-61
2022/10/14 09:26:47;;;;;;;3.40;1.35;;;;;;;19.63;54.41;101071.09;5064577;28;20064;-63
2022/10/14 09:29:18;;;;;;;3.00;1.30;;;;;;;19.64;54.65;101070.13;5064173;28;20039;-60
2022/10/14 09:31:44;;;;;;;2.33;1.20;;;;;;;19.65;54.72;101070.00;5064458;28;20250;-60
2022/10/14 09:34:18;;;;;;;2.70;1.30;;;;;;;19.66;54.45;101065.53;5064611;28;20129;-62
2022/10/14 09:36:47;;;;;;;2.90;1.30;;;;;;;19.58;54.56;101050.31;5063743;28;20028;-60
2022/10/14 09:39:13;;;;;;;3.28;1.40;;;;;;;19.65;54.57;101066.53;5064037;28;20119;-62
2022/10/14 09:41:38;;;;;;;2.08;1.20;;;;;;;19.57;54.45;101046.84;5064275;28;20189;-60
2022/10/14 09:44:18;;;;;;;3.27;1.27;;;;;;;19.65;54.71;101064.72;5064302;28;20392;-60
2022/10/14 09:46:51;;;;;;;3.97;1.52;;;;;;;19.64;55.19;101057.75;5062867;28;20275;-65
2022/10/14 09:49:25;;;;;;;3.42;1.42;;;;;;;19.62;55.08;101051.75;5063049;28;20135;-69
2022/10/14 09:51:51;;;;;;;3.45;1.30;;;;;;;19.61;55.49;101050.06;5063804;28;20028;-67
2022/10/14 09:54:23;;;;;;;7.43;3.72;;;;;;;19.72;55.35;101063.22;5063558;28;20032;-65
2022/10/14 09:56:48;;;;;;;3.22;1.85;;;;;;;19.79;55.55;101062.72;5063357;28;20063;-68
2022/10/14 09:59:18;;;;;;;3.38;1.60;;;;;;;19.76;55.39;101042.69;5062985;28;20128;-67
2022/10/14 10:01:59;;;;;;;6.13;1.70;;;;;;;19.87;55.21;101044.44;5062898;28;20039;-63
2022/10/14 10:04:40;;;;;;;2.85;1.23;;;;;;;19.87;55.00;101039.97;5062664;28;20036;-61
2022/10/14 10:07:21;;;;;;;5.18;1.48;;;;;;;19.88;54.97;101049.56;5063589;28;20042;-62
2022/10/14 10:09:53;;;;;;;3.35;1.42;;;;;;;19.87;55.19;101049.72;5062491;28;20456;-62
2022/10/14 10:12:33;;;;;;;3.00;1.40;;;;;;;19.85;55.22;101052.50;5062473;28;20028;-60
2022/10/14 10:15:04;;;;;;;3.38;1.60;;;;;;;19.83;55.12;101043.81;5062082;28;20144;-63
2022/10/14 10:17:34;;;;;;;4.85;1.80;;;;;;;19.85;55.75;101047.19;5062978;28;20124;-61
2022/10/14 10:20:27;;;;;;;5.88;1.40;;;;;;;19.87;55.50;101034.66;5061196;28;20047;-67
2022/10/14 10:22:53;;;;;;;3.50;1.63;;;;;;;19.84;55.22;101024.34;5062975;28;20060;-67
2022/10/14 10:25:25;;;;;;;3.58;1.40;;;;;;;19.86;55.38;101025.06;5062328;28;20903;-62
2022/10/14 10:27:51;;;;;;;4.35;1.70;;;;;;;19.85;55.19;101023.41;5062583;28;20043;-62
2022/10/14 10:30:16;;;;;;;4.38;1.38;;;;;;;19.90;55.24;101029.13;5062364;28;20036;-61
2022/10/14 10:32:48;;;;;;;4.03;1.40;;;;;;;19.90;54.95;101030.91;5062818;28;20052;-61
2022/10/14 10:35:26;;;;;;;3.22;1.45;;;;;;;19.89;55.25;101030.09;5063536;28;20115;-63
2022/10/14 10:38:15;;;;;;;5.80;1.42;;;;;;;19.86;55.13;101021.59;5063096;28;20047;-60
2022/10/14 10:41:14;;;;;;;5.15;1.65;;;;;;;19.88;55.32;101020.47;5062955;28;20094;-61
2022/10/14 10:44:17;;;;;;;3.20;1.63;;;;;;;19.88;55.29;101025.75;5063247;28;20031;-62
2022/10/14 10:46:54;;;;;;;6.95;1.60;;;;;;;19.89;54.95;101021.31;5062896;28;20071;-62
2022/10/14 10:49:37;;;;;;;3.45;1.30;;;;;;;19.90;55.15;101025.63;5062815;28;20606;-60
2022/10/14 10:52:27;;;;;;;8.45;1.45;;;;;;;19.82;55.28;101015.72;5062694;28;20048;-62
2022/10/14 10:55:16;;;;;;;4.50;1.85;;;;;;;19.86;54.94;101018.94;5062928;28;20487;-61
2022/10/14 10:57:52;;;;;;;3.28;1.30;;;;;;;19.87;55.05;101021.44;5062801;28;20068;-61
2022/10/14 11:00:21;;;;;;;4.38;1.70;;;;;;;19.71;55.21;100991.94;5062657;28;20028;-63
2022/10/14 11:02:56;;;;;;;3.97;1.40;;;;;;;19.85;55.20;101011.97;5062736;28;20039;-60
2022/10/14 11:05:37;;;;;;;7.43;1.45;;;;;;;19.85;55.07;101011.97;5062878;28;20050;-61
2022/10/14 11:14:45;;;;;;;5.30;1.30;;;;;;;19.75;55.47;100996.84;5062906;28;20040;-61
2022/10/14 11:17:32;;;;;;;2.80;1.17;;;;;;;19.73;55.33;100985.56;5062453;28;20285;-62
2022/10/14 11:20:21;;;;;;;3.28;1.50;;;;;;;19.82;55.34;100991.06;5062101;28;20261;-62
2022/10/14 11:22:46;;;;;;;3.75;1.30;;;;;;;19.81;55.28;100992.06;5062322;28;20094;-62
2022/10/14 11:25:37;;;;;;;2.67;1.40;;;;;;;19.82;55.57;100991.91;5062446;28;20033;-62
2022/10/14 11:28:26;;;;;;;2.67;1.30;;;;;;;19.79;55.37;100993.97;5061831;28;20063;-61
2022/10/14 11:31:11;;;;;;;2.38;1.20;;;;;;;19.80;55.45;100990.38;5062108;28;20118;-62
2022/10/14 11:34:01;;;;;;;3.55;1.25;;;;;;;19.79;55.23;100986.91;5062085;28;20036;-61
2022/10/14 11:36:55;;;;;;;3.03;1.40;;;;;;;19.76;55.62;100979.22;5062076;28;20032;-63
2022/10/14 11:39:46;;;;;;;2.42;1.20;;;;;;;19.79;55.29;100975.47;5061576;28;20036;-60
2022/10/14 11:42:33;;;;;;;3.88;1.40;;;;;;;19.78;55.69;100971.16;5061735;28;20048;-61